Terminal Aerodrome Forecast
Issued by NWS Missoula, MT

Home | Current Version | Previous Version | Text Only | Print | Product List | Glossary On
Versions: 1 2 3 4 5 6 7 8 9 10 11 12 13 14 15 16 17
000
FTUS45 KMSO 261603 AAA
TAFBTM
TAF AMD
KBTM 261603Z 2616/2712 30005KT 2SM -SN BR OVC012
     FM261800 30006KT 3SM -SN BR OVC020
     FM261900 33007KT P6SM -SHSNRA BKN030
     FM270100 VRB04KT P6SM BKN050
     FM270900 VRB03KT P6SM VCFG SCT001=

USA.gov is the U.S. government's official web portal to all federal, state and local government web resources and services.